sensor_id;sensor_type;location;lat;lon;timestamp;temperature;humidity
1091;DHT22;534;48.704;9.122;2023-05-31T04:00:59;18.30;51.80
1091;DHT22;534;48.704;9.122;2023-05-31T04:03:25;18.30;51.50
1091;DHT22;534;48.704;9.122;2023-05-31T04:05:53;18.30;52.00
1091;DHT22;534;48.704;9.122;2023-05-31T04:08:19;18.30;51.40
1091;DHT22;534;48.704;9.122;2023-05-31T04:10:46;18.30;51.50
1091;DHT22;534;48.704;9.122;2023-05-31T04:13:12;18.30;51.30
1091;DHT22;534;48.704;9.122;2023-05-31T04:15:39;18.30;52.00
1091;DHT22;534;48.704;9.122;2023-05-31T04:18:07;18.30;51.80
1091;DHT22;534;48.704;9.122;2023-05-31T04:20:34;18.30;51.60
1091;DHT22;534;48.704;9.122;2023-05-31T04:23:00;18.30;51.30
1091;DHT22;534;48.704;9.122;2023-05-31T04:25:27;18.30;51.60
1091;DHT22;534;48.704;9.122;2023-05-31T04:27:54;18.30;51.60
1091;DHT22;534;48.704;9.122;2023-05-31T04:30:21;18.40;51.90
1091;DHT22;534;48.704;9.122;2023-05-31T04:32:49;18.40;51.80
1091;DHT22;534;48.704;9.122;2023-05-31T04:35:18;18.50;51.70
1091;DHT22;534;48.704;9.122;2023-05-31T04:37:45;18.50;51.60
1091;DHT22;534;48.704;9.122;2023-05-31T04:40:13;18.60;51.70
1091;DHT22;534;48.704;9.122;2023-05-31T04:42:40;18.70;51.50
1091;DHT22;534;48.704;9.122;2023-05-31T04:45:08;18.80;51.20
1091;DHT22;534;48.704;9.122;2023-05-31T04:47:35;18.90;51.40
1091;DHT22;534;48.704;9.122;2023-05-31T04:50:02;18.90;51.40
1091;DHT22;534;48.704;9.122;2023-05-31T04:52:30;19.00;51.00
1091;DHT22;534;48.704;9.122;2023-05-31T04:54:58;19.00;50.40
1091;DHT22;534;48.704;9.122;2023-05-31T04:57:26;19.00;50.90
1091;DHT22;534;48.704;9.122;2023-05-31T04:59:53;19.00;50.90
1091;DHT22;534;48.704;9.122;2023-05-31T05:02:21;19.10;50.90
1091;DHT22;534;48.704;9.122;2023-05-31T05:04:48;19.20;51.80
1091;DHT22;534;48.704;9.122;2023-05-31T05:07:15;19.30;51.00
1091;DHT22;534;48.704;9.122;2023-05-31T05:09:44;19.30;50.40
1091;DHT22;534;48.704;9.122;2023-05-31T05:12:11;19.40;50.60
1091;DHT22;534;48.704;9.122;2023-05-31T05:14:38;19.40;51.00
1091;DHT22;534;48.704;9.122;2023-05-31T05:17:05;19.60;51.00
1091;DHT22;534;48.704;9.122;2023-05-31T05:19:31;19.70;51.50
1091;DHT22;534;48.704;9.122;2023-05-31T05:21:58;19.80;50.70
1091;DHT22;534;48.704;9.122;2023-05-31T05:24:25;19.80;50.40
1091;DHT22;534;48.704;9.122;2023-05-31T05:26:53;19.80;50.60
1091;DHT22;534;48.704;9.122;2023-05-31T05:29:20;19.70;50.20
1091;DHT22;534;48.704;9.122;2023-05-31T05:31:47;19.80;50.30
1091;DHT22;534;48.704;9.122;2023-05-31T05:34:14;20.00;50.50
1091;DHT22;534;48.704;9.122;2023-05-31T05:36:40;20.00;49.60
1091;DHT22;534;48.704;9.122;2023-05-31T05:39:07;19.90;50.50
1091;DHT22;534;48.704;9.122;2023-05-31T05:41:34;19.90;51.10
1091;DHT22;534;48.704;9.122;2023-05-31T05:44:02;19.80;50.80
1091;DHT22;534;48.704;9.122;2023-05-31T05:46:28;19.90;51.40
1091;DHT22;534;48.704;9.122;2023-05-31T05:48:55;19.80;49.60
1091;DHT22;534;48.704;9.122;2023-05-31T05:51:22;19.80;50.20
1091;DHT22;534;48.704;9.122;2023-05-31T05:53:49;19.70;50.70
1091;DHT22;534;48.704;9.122;2023-05-31T05:56:15;19.80;50.20
1091;DHT22;534;48.704;9.122;2023-05-31T05:58:44;19.80;50.80
1091;DHT22;534;48.704;9.122;2023-05-31T06:01:13;19.80;50.70
1091;DHT22;534;48.704;9.122;2023-05-31T06:03:45;19.90;51.00
1091;DHT22;534;48.704;9.122;2023-05-31T06:06:11;19.70;50.60
1091;DHT22;534;48.704;9.122;2023-05-31T06:08:39;19.70;50.50
1091;DHT22;534;48.704;9.122;2023-05-31T06:11:05;19.60;50.00
1091;DHT22;534;48.704;9.122;2023-05-31T06:13:32;19.70;50.30
1091;DHT22;534;48.704;9.122;2023-05-31T06:15:59;19.80;50.80
1091;DHT22;534;48.704;9.122;2023-05-31T06:18:27;19.90;51.20
1091;DHT22;534;48.704;9.122;2023-05-31T06:20:53;20.10;51.00
1091;DHT22;534;48.704;9.122;2023-05-31T06:23:20;20.20;50.00
1091;DHT22;534;48.704;9.122;2023-05-31T06:25:47;20.20;49.20
1091;DHT22;534;48.704;9.122;2023-05-31T06:28:14;20.00;49.60
1091;DHT22;534;48.704;9.122;2023-05-31T06:30:41;20.00;50.30
1091;DHT22;534;48.704;9.122;2023-05-31T06:33:08;20.10;49.60
1091;DHT22;534;48.704;9.122;2023-05-31T06:35:36;20.20;50.10
1091;DHT22;534;48.704;9.122;2023-05-31T06:38:02;20.40;49.70
1091;DHT22;534;48.704;9.122;2023-05-31T06:40:29;20.30;50.10
1091;DHT22;534;48.704;9.122;2023-05-31T06:42:56;20.40;50.50
1091;DHT22;534;48.704;9.122;2023-05-31T06:45:23;20.30;49.40
1091;DHT22;534;48.704;9.122;2023-05-31T06:47:50;20.40;49.80
1091;DHT22;534;48.704;9.122;2023-05-31T06:50:17;20.40;50.30
1091;DHT22;534;48.704;9.122;2023-05-31T06:52:45;20.40;50.60
1091;DHT22;534;48.704;9.122;2023-05-31T06:55:11;20.40;50.30
1091;DHT22;534;48.704;9.122;2023-05-31T06:57:38;20.40;49.60
1091;DHT22;534;48.704;9.122;2023-05-31T07:00:06;20.60;50.40
1091;DHT22;534;48.704;9.122;2023-05-31T07:02:33;20.50;49.90
1091;DHT22;534;48.704;9.122;2023-05-31T07:05:00;20.60;50.10
1091;DHT22;534;48.704;9.122;2023-05-31T07:07:27;20.80;50.60
1091;DHT22;534;48.704;9.122;2023-05-31T07:09:55;21.10;50.60
1091;DHT22;534;48.704;9.122;2023-05-31T07:12:21;21.10;50.20
1091;DHT22;534;48.704;9.122;2023-05-31T07:14:48;21.40;49.10
1091;DHT22;534;48.704;9.122;2023-05-31T07:17:15;21.40;47.90
1091;DHT22;534;48.704;9.122;2023-05-31T07:19:45;21.10;49.70
1091;DHT22;534;48.704;9.122;2023-05-31T07:22:13;21.10;50.00
1091;DHT22;534;48.704;9.122;2023-05-31T07:24:40;21.20;49.20
1091;DHT22;534;48.704;9.122;2023-05-31T07:27:08;21.30;49.40
1091;DHT22;534;48.704;9.122;2023-05-31T07:29:35;21.20;49.80
1091;DHT22;534;48.704;9.122;2023-05-31T07:32:02;21.30;51.00
1091;DHT22;534;48.704;9.122;2023-05-31T07:34:29;21.60;50.40
1091;DHT22;534;48.704;9.122;2023-05-31T07:36:55;21.70;50.50
1091;DHT22;534;48.704;9.122;2023-05-31T07:39:22;21.60;49.80
1091;DHT22;534;48.704;9.122;2023-05-31T07:41:49;21.70;50.40
1091;DHT22;534;48.704;9.122;2023-05-31T07:44:18;22.00;50.30
1091;DHT22;534;48.704;9.122;2023-05-31T07:46:47;22.10;49.20
1091;DHT22;534;48.704;9.122;2023-05-31T07:49:13;22.30;48.00
1091;DHT22;534;48.704;9.122;2023-05-31T07:51:40;22.40;48.60
1091;DHT22;534;48.704;9.122;2023-05-31T07:54:07;22.30;47.90
1091;DHT22;534;48.704;9.122;2023-05-31T07:56:33;21.90;48.00
1091;DHT22;534;48.704;9.122;2023-05-31T07:59:00;21.90;48.30
1091;DHT22;534;48.704;9.122;2023-05-31T08:01:28;22.10;49.10
1091;DHT22;534;48.704;9.122;2023-05-31T08:04:04;22.30;48.60
1091;DHT22;534;48.704;9.122;2023-05-31T08:06:31;22.30;48.70
1091;DHT22;534;48.704;9.122;2023-05-31T08:08:58;22.00;48.70
1091;DHT22;534;48.704;9.122;2023-05-31T08:11:25;22.30;49.00
1091;DHT22;534;48.704;9.122;2023-05-31T08:13:51;22.10;48.00
1091;DHT22;534;48.704;9.122;2023-05-31T08:16:18;22.00;48.70
1091;DHT22;534;48.704;9.122;2023-05-31T08:18:46;22.00;48.90
1091;DHT22;534;48.704;9.122;2023-05-31T08:21:14;22.00;49.50
1091;DHT22;534;48.704;9.122;2023-05-31T08:23:40;22.20;49.80
1091;DHT22;534;48.704;9.122;2023-05-31T08:26:08;22.40;49.30
1091;DHT22;534;48.704;9.122;2023-05-31T08:28:35;22.50;49.00
1091;DHT22;534;48.704;9.122;2023-05-31T08:31:02;22.60;48.40
1091;DHT22;534;48.704;9.122;2023-05-31T08:33:29;22.40;48.60
1091;DHT22;534;48.704;9.122;2023-05-31T08:35:58;22.30;47.50
1091;DHT22;534;48.704;9.122;2023-05-31T08:38:25;22.10;48.70
1091;DHT22;534;48.704;9.122;2023-05-31T08:40:52;22.00;49.70
1091;DHT22;534;48.704;9.122;2023-05-31T08:43:19;22.20;49.80
1091;DHT22;534;48.704;9.122;2023-05-31T08:45:49;22.40;48.60
1091;DHT22;534;48.704;9.122;2023-05-31T08:48:20;22.60;49.40
1091;DHT22;534;48.704;9.122;2023-05-31T08:50:48;23.00;48.90
1091;DHT22;534;48.704;9.122;2023-05-31T08:53:17;23.20;49.20
1091;DHT22;534;48.704;9.122;2023-05-31T08:55:45;23.40;48.00
1091;DHT22;534;48.704;9.122;2023-05-31T08:58:13;23.40;48.70
1091;DHT22;534;48.704;9.122;2023-05-31T09:00:40;23.40;48.00
1091;DHT22;534;48.704;9.122;2023-05-31T09:03:09;23.40;48.80
1091;DHT22;534;48.704;9.122;2023-05-31T09:05:36;23.70;47.30
1091;DHT22;534;48.704;9.122;2023-05-31T09:08:03;23.70;48.10
1091;DHT22;534;48.704;9.122;2023-05-31T09:10:32;23.70;47.80
1091;DHT22;534;48.704;9.122;2023-05-31T09:12:58;23.70;46.30
1091;DHT22;534;48.704;9.122;2023-05-31T09:15:26;23.70;47.00
1091;DHT22;534;48.704;9.122;2023-05-31T09:17:54;23.80;46.40
1091;DHT22;534;48.704;9.122;2023-05-31T09:20:30;23.70;46.10
1091;DHT22;534;48.704;9.122;2023-05-31T09:23:02;23.70;46.30
1091;DHT22;534;48.704;9.122;2023-05-31T09:25:34;23.70;46.40
1091;DHT22;534;48.704;9.122;2023-05-31T09:28:08;23.60;46.80
1091;DHT22;534;48.704;9.122;2023-05-31T09:30:35;23.90;46.40
1091;DHT22;534;48.704;9.122;2023-05-31T09:33:01;24.00;46.90
1091;DHT22;534;48.704;9.122;2023-05-31T09:35:28;24.00;45.00
1091;DHT22;534;48.704;9.122;2023-05-31T09:37:55;24.10;45.50
1091;DHT22;534;48.704;9.122;2023-05-31T09:40:23;23.90;44.20
1091;DHT22;534;48.704;9.122;2023-05-31T09:42:52;23.90;45.80
1091;DHT22;534;48.704;9.122;2023-05-31T09:45:20;24.00;45.20
1091;DHT22;534;48.704;9.122;2023-05-31T09:47:48;24.00;46.10
1091;DHT22;534;48.704;9.122;2023-05-31T09:50:16;24.10;45.00
1091;DHT22;534;48.704;9.122;2023-05-31T09:52:44;24.10;45.10
1091;DHT22;534;48.704;9.122;2023-05-31T09:55:13;24.30;45.20
1091;DHT22;534;48.704;9.122;2023-05-31T09:57:40;24.50;45.00
1091;DHT22;534;48.704;9.122;2023-05-31T10:00:09;24.50;43.70
1091;DHT22;534;48.704;9.122;2023-05-31T10:02:41;24.50;43.10
1091;DHT22;534;48.704;9.122;2023-05-31T10:05:09;24.20;44.40
1091;DHT22;534;48.704;9.122;2023-05-31T10:07:38;24.50;43.60
1091;DHT22;534;48.704;9.122;2023-05-31T10:10:06;24.40;43.80
1091;DHT22;534;48.704;9.122;2023-05-31T10:12:37;24.50;44.50
1091;DHT22;534;48.704;9.122;2023-05-31T10:15:09;24.60;42.70
1091;DHT22;534;48.704;9.122;2023-05-31T10:17:40;24.60;42.40
1091;DHT22;534;48.704;9.122;2023-05-31T10:20:11;24.50;43.10
1091;DHT22;534;48.704;9.122;2023-05-31T10:22:39;24.40;42.60
1091;DHT22;534;48.704;9.122;2023-05-31T10:25:13;24.50;42.90
1091;DHT22;534;48.704;9.122;2023-05-31T10:27:44;24.50;43.80
1091;DHT22;534;48.704;9.122;2023-05-31T10:30:13;24.50;43.30
1091;DHT22;534;48.704;9.122;2023-05-31T10:32:42;24.60;43.50
1091;DHT22;534;48.704;9.122;2023-05-31T10:35:11;24.70;44.60
1091;DHT22;534;48.704;9.122;2023-05-31T10:37:39;24.80;44.00
1091;DHT22;534;48.704;9.122;2023-05-31T10:40:12;24.90;42.80
1091;DHT22;534;48.704;9.122;2023-05-31T10:42:44;24.60;43.90
1091;DHT22;534;48.704;9.122;2023-05-31T10:45:17;24.70;42.90
1091;DHT22;534;48.704;9.122;2023-05-31T10:47:53;24.90;42.60
1091;DHT22;534;48.704;9.122;2023-05-31T10:50:24;24.80;41.40
1091;DHT22;534;48.704;9.122;2023-05-31T10:52:51;24.70;42.70
1091;DHT22;534;48.704;9.122;2023-05-31T10:55:20;24.80;42.50
1091;DHT22;534;48.704;9.122;2023-05-31T10:57:52;24.90;42.90
1091;DHT22;534;48.704;9.122;2023-05-31T11:00:21;24.90;42.70
1091;DHT22;534;48.704;9.122;2023-05-31T11:02:49;25.10;42.90
1091;DHT22;534;48.704;9.122;2023-05-31T11:05:20;25.20;42.50
1091;DHT22;534;48.704;9.122;2023-05-31T11:07:48;25.20;42.60
1091;DHT22;534;48.704;9.122;2023-05-31T11:10:26;25.50;42.90
1091;DHT22;534;48.704;9.122;2023-05-31T11:12:55;25.50;42.30
1091;DHT22;534;48.704;9.122;2023-05-31T11:15:38;25.50;42.80
1091;DHT22;534;48.704;9.122;2023-05-31T11:18:07;25.40;41.20
1091;DHT22;534;48.704;9.122;2023-05-31T11:20:34;25.30;42.60
1091;DHT22;534;48.704;9.122;2023-05-31T11:23:26;25.40;41.90
1091;DHT22;534;48.704;9.122;2023-05-31T11:26:08;25.40;41.60
1091;DHT22;534;48.704;9.122;2023-05-31T11:28:53;25.60;42.20
1091;DHT22;534;48.704;9.122;2023-05-31T11:34:23;25.70;41.20
1091;DHT22;534;48.704;9.122;2023-05-31T11:36:50;25.60;41.70
1091;DHT22;534;48.704;9.122;2023-05-31T11:39:17;25.80;42.80
1091;DHT22;534;48.704;9.122;2023-05-31T11:41:44;25.60;40.60
1091;DHT22;534;48.704;9.122;2023-05-31T11:44:12;25.80;41.90
1091;DHT22;534;48.704;9.122;2023-05-31T11:46:44;25.60;39.80
1091;DHT22;534;48.704;9.122;2023-05-31T11:49:13;25.30;40.90
1091;DHT22;534;48.704;9.122;2023-05-31T11:51:42;25.40;41.90
1091;DHT22;534;48.704;9.122;2023-05-31T11:54:10;25.80;42.00
1091;DHT22;534;48.704;9.122;2023-05-31T11:56:40;25.90;40.70
